createdAt,value
2018-12-29T00:01:41.952Z,2.48
2018-12-29T00:04:12.954Z,2.48
2018-12-29T00:07:02.748Z,2.54
2018-12-29T00:09:45.604Z,2.58
2018-12-29T00:12:35.999Z,2.61
2018-12-29T00:15:07.690Z,2.66
2018-12-29T00:17:57.499Z,2.70
2018-12-29T00:20:44.918Z,2.81
2018-12-29T00:23:27.834Z,2.77
2018-12-29T00:26:18.143Z,2.71
2018-12-29T00:29:08.002Z,2.65
2018-12-29T00:31:51.594Z,2.61
2018-12-29T00:37:23.836Z,2.59
2018-12-29T00:40:13.955Z,2.67
2018-12-29T00:42:58.636Z,2.56
2018-12-29T00:45:48.417Z,2.61
2018-12-29T00:48:30.803Z,2.63
2018-12-29T00:51:20.608Z,2.54
2018-12-29T00:54:03.899Z,2.58
2018-12-29T00:56:53.656Z,2.83
2018-12-29T00:59:36.349Z,2.85
2018-12-29T01:02:26.093Z,2.69
2018-12-29T01:05:08.656Z,2.70
2018-12-29T01:07:58.416Z,2.74
2018-12-29T01:10:41.035Z,2.87
2018-12-29T01:13:30.901Z,2.69
2018-12-29T01:19:16.841Z,2.58
2018-12-29T01:22:06.691Z,2.54
2018-12-29T01:24:49.189Z,2.54
2018-12-29T01:27:39.023Z,2.57
2018-12-29T01:30:21.185Z,2.52
2018-12-29T01:33:10.959Z,2.62
2018-12-29T01:35:53.794Z,2.73
2018-12-29T01:38:43.591Z,2.79
2018-12-29T01:41:26.081Z,2.81
2018-12-29T01:44:15.879Z,2.81
2018-12-29T01:47:05.614Z,2.98
2018-12-29T01:49:55.360Z,2.78
2018-12-29T01:52:45.109Z,2.74
2018-12-29T01:55:27.168Z,2.91
2018-12-29T01:58:16.931Z,2.70
2018-12-29T02:01:01.509Z,2.78
2018-12-29T02:03:51.276Z,2.89
2018-12-29T02:06:33.838Z,2.86
2018-12-29T02:09:23.572Z,2.93
2018-12-29T02:12:13.488Z,2.91
2018-12-29T02:15:03.352Z,2.83
2018-12-29T02:17:53.121Z,2.69
2018-12-29T02:20:42.927Z,2.80
2018-12-29T02:23:32.796Z,2.53
2018-12-29T02:26:22.578Z,2.82
2018-12-29T02:29:12.683Z,2.76
2018-12-29T02:32:02.548Z,2.63
2018-12-29T02:34:52.367Z,2.67
2018-12-29T02:37:42.284Z,2.53
2018-12-29T02:40:32.064Z,2.75
2018-12-29T02:43:21.840Z,2.70
2018-12-29T02:49:15.661Z,2.95
2018-12-29T02:51:58.640Z,2.65
2018-12-29T02:54:48.405Z,2.57
2018-12-29T02:57:38.205Z,2.38
2018-12-29T03:00:28.109Z,2.60
2018-12-29T03:03:17.916Z,2.45
2018-12-29T03:09:11.327Z,2.24
2018-12-29T03:11:53.952Z,2.27
2018-12-29T03:14:43.766Z,2.20
2018-12-29T03:17:33.629Z,2.44
2018-12-29T03:25:51.573Z,2.69
2018-12-29T03:28:41.314Z,2.42
2018-12-29T03:31:23.803Z,2.53
2018-12-29T03:34:13.595Z,2.31
2018-12-29T03:36:56.289Z,2.41
2018-12-29T03:39:46.467Z,2.37
2018-12-29T03:42:29.086Z,2.40
2018-12-29T03:45:18.842Z,2.35
2018-12-29T03:48:00.802Z,2.59
2018-12-29T03:50:50.583Z,2.44
2018-12-29T03:53:33.035Z,2.55
2018-12-29T03:56:22.761Z,2.68
2018-12-29T03:59:05.621Z,2.65
2018-12-29T04:01:55.349Z,2.72
2018-12-29T04:04:37.601Z,2.56
2018-12-29T04:07:27.375Z,2.68
2018-12-29T04:10:12.468Z,2.52
2018-12-29T04:13:02.596Z,2.64
2018-12-29T04:15:58.052Z,2.35
2018-12-29T04:18:36.921Z,2.51
2018-12-29T04:21:26.822Z,2.40
2018-12-29T04:24:16.642Z,2.33
2018-12-29T04:30:10.202Z,2.04
2018-12-29T04:33:00.023Z,2.18
2018-12-29T04:35:49.882Z,2.13
2018-12-29T04:38:39.681Z,2.02
2018-12-29T04:41:29.521Z,1.86
2018-12-29T04:44:19.284Z,1.93
2018-12-29T04:47:09.116Z,2.03
2018-12-29T04:49:58.893Z,2.06
2018-12-29T04:52:48.784Z,1.88
2018-12-29T04:55:38.501Z,1.85
2018-12-29T04:58:28.253Z,1.88
2018-12-29T05:01:18.860Z,1.79
2018-12-29T05:04:00.804Z,1.84
2018-12-29T05:06:50.716Z,1.97
2018-12-29T05:09:32.861Z,2.03
2018-12-29T05:12:22.611Z,1.97
2018-12-29T05:15:05.266Z,1.90
2018-12-29T05:17:55.816Z,2.04
2018-12-29T05:20:37.927Z,1.97
2018-12-29T05:23:27.658Z,2.05
2018-12-29T05:29:13.445Z,2.18
2018-12-29T05:32:03.169Z,2.13
2018-12-29T05:34:45.692Z,2.11
2018-12-29T05:37:35.438Z,2.05
2018-12-29T05:40:18.086Z,2.15
2018-12-29T05:43:07.911Z,1.68
2018-12-29T05:45:50.514Z,1.52
2018-12-29T05:48:32.550Z,1.40
2018-12-29T05:51:22.511Z,1.37
2018-12-29T05:54:12.306Z,1.21
2018-12-29T05:57:21.192Z,0.91
2018-12-29T06:00:03.647Z,0.89
2018-12-29T06:02:53.582Z,0.73
2018-12-29T06:05:43.431Z,0.64
2018-12-29T06:08:33.211Z,0.60
2018-12-29T06:14:26.186Z,0.45
2018-12-29T06:17:10.072Z,0.46
2018-12-29T06:19:52.271Z,0.48
2018-12-29T06:22:42.132Z,0.60
2018-12-29T06:25:31.942Z,0.59
2018-12-29T06:28:21.649Z,0.45
2018-12-29T06:31:04.116Z,0.18
2018-12-29T06:33:53.888Z,0.16
2018-12-29T06:36:43.670Z,0.28
2018-12-29T06:39:33.510Z,0.29
2018-12-29T06:42:23.244Z,0.34
2018-12-29T06:45:13.035Z,0.45
2018-12-29T06:48:02.815Z,0.68
2018-12-29T06:50:52.557Z,0.92
2018-12-29T06:53:42.368Z,1.06
2018-12-29T06:56:32.236Z,1.34
2018-12-29T06:59:22.428Z,1.37
2018-12-29T07:02:04.689Z,1.52
2018-12-29T07:04:47.753Z,1.66
2018-12-29T07:07:37.511Z,1.72
2018-12-29T07:10:27.305Z,1.61
2018-12-29T07:13:17.063Z,1.51
2018-12-29T07:16:06.935Z,1.45
2018-12-29T07:18:56.793Z,1.21
2018-12-29T07:21:46.543Z,1.05
2018-12-29T07:24:36.357Z,1.25
2018-12-29T07:27:27.092Z,1.27
2018-12-29T07:30:16.883Z,1.09
2018-12-29T07:35:57.514Z,1.24
2018-12-29T07:38:28.922Z,1.19
2018-12-29T07:41:19.067Z,1.32
2018-12-29T07:44:08.897Z,1.45
2018-12-29T07:46:58.703Z,1.38
2018-12-29T07:49:48.469Z,1.60
2018-12-29T07:52:38.265Z,1.64
2018-12-29T07:55:28.015Z,1.68
2018-12-29T07:58:10.703Z,1.47
2018-12-29T08:01:00.509Z,1.17
2018-12-29T08:03:50.317Z,0.62
2018-12-29T08:06:40.154Z,0.44
2018-12-29T08:09:29.870Z,0.51
2018-12-29T08:12:12.756Z,0.58
2018-12-29T08:15:02.666Z,0.69
2018-12-29T08:18:03.570Z,0.69
2018-12-29T08:20:47.750Z,0.53
2018-12-29T08:23:47.762Z,0.31
2018-12-29T08:26:18.177Z,0.49
2018-12-29T08:29:08.305Z,0.31
2018-12-29T08:31:50.843Z,0.24
2018-12-29T08:34:40.583Z,0.25
2018-12-29T08:37:30.743Z,0.22
2018-12-29T08:40:13.136Z,0.10
2018-12-29T08:43:02.962Z,0.07
2018-12-29T08:45:53.155Z,0.17
2018-12-29T08:48:42.989Z,0.10
2018-12-29T08:51:32.811Z,0.10
2018-12-29T08:54:22.637Z,-0.16
2018-12-29T08:57:12.615Z,-0.08
2018-12-29T09:00:02.389Z,-0.04
2018-12-29T09:02:52.256Z,0.13
2018-12-29T09:05:42.032Z,0.03
2018-12-29T09:11:37.122Z,0.07
2018-12-29T09:14:19.324Z,-0.10
2018-12-29T09:17:12.286Z,-0.20
2018-12-29T09:19:53.414Z,-0.20
2018-12-29T09:22:43.239Z,-0.12
2018-12-29T09:25:33.369Z,-0.18
2018-12-29T09:28:15.575Z,-0.44
2018-12-29T09:31:05.348Z,-0.35
2018-12-29T09:33:48.296Z,-0.26
2018-12-29T09:36:38.040Z,-0.13
2018-12-29T09:39:24.712Z,0.03
2018-12-29T09:48:11.585Z,0.29
2018-12-29T09:51:01.686Z,0.24
2018-12-29T09:53:44.073Z,0.01
2018-12-29T09:56:33.817Z,-0.02
2018-12-29T09:59:16.574Z,-0.03
2018-12-29T10:02:06.314Z,-0.06
2018-12-29T10:04:48.695Z,-0.10
2018-12-29T10:07:38.474Z,0.07
2018-12-29T10:10:21.321Z,0.23
2018-12-29T10:13:11.055Z,0.29
2018-12-29T10:15:53.347Z,0.36
2018-12-29T10:18:43.103Z,0.47
2018-12-29T10:21:26.183Z,0.43
2018-12-29T10:24:15.951Z,0.39
2018-12-29T10:26:58.460Z,0.38
2018-12-29T10:29:48.217Z,0.37
2018-12-29T10:32:30.522Z,0.52
2018-12-29T10:35:20.252Z,0.47
2018-12-29T10:38:03.087Z,0.45
2018-12-29T10:40:52.857Z,0.70
2018-12-29T10:43:35.104Z,0.66
2018-12-29T10:46:24.900Z,0.42
2018-12-29T10:49:07.067Z,0.25
2018-12-29T10:51:57.279Z,-0.01
2018-12-29T10:54:39.576Z,0.24
2018-12-29T10:57:29.368Z,0.06
2018-12-29T11:00:12.491Z,0.08
2018-12-29T11:03:02.571Z,0.15
2018-12-29T11:05:44.536Z,0.50
2018-12-29T11:08:34.347Z,0.43
2018-12-29T11:11:16.771Z,0.70
2018-12-29T11:14:06.512Z,0.69
2018-12-29T11:16:49.000Z,0.77
2018-12-29T11:19:38.763Z,0.67
2018-12-29T11:22:20.864Z,0.96
2018-12-29T11:25:10.640Z,1.02
2018-12-29T11:27:53.541Z,0.87
2018-12-29T11:30:43.260Z,1.13
2018-12-29T11:33:25.250Z,1.02
2018-12-29T11:36:15.030Z,1.21
2018-12-29T11:38:57.656Z,1.33
2018-12-29T11:41:47.782Z,1.40
2018-12-29T11:44:37.513Z,1.57
2018-12-29T11:47:27.578Z,1.81
2018-12-29T11:53:23.308Z,1.10
2018-12-29T11:56:07.170Z,0.80
2018-12-29T11:58:49.664Z,0.75
2018-12-29T12:01:39.660Z,0.87
2018-12-29T12:04:29.490Z,0.83
2018-12-29T12:07:13.486Z,0.74
2018-12-29T12:09:57.443Z,1.05
2018-12-29T12:12:40.206Z,1.18
2018-12-29T12:15:30.154Z,1.21
2018-12-29T12:18:19.992Z,1.23
2018-12-29T12:21:09.856Z,0.93
2018-12-29T12:24:18.774Z,0.96
2018-12-29T12:27:08.608Z,1.16
2018-12-29T12:29:53.092Z,1.37
2018-12-29T12:32:42.910Z,1.24
2018-12-29T12:35:33.250Z,1.12
2018-12-29T12:38:17.565Z,1.24
2018-12-29T12:41:07.425Z,1.09
2018-12-29T12:43:57.340Z,0.93
2018-12-29T12:46:47.168Z,1.15
2018-12-29T12:49:37.093Z,1.41
2018-12-29T12:52:27.136Z,1.64
2018-12-29T12:55:17.312Z,1.65
2018-12-29T12:58:07.225Z,1.75
2018-12-29T13:00:51.706Z,1.96
2018-12-29T13:03:41.863Z,1.98
2018-12-29T13:06:31.576Z,1.64
2018-12-29T13:09:15.412Z,1.71
2018-12-29T13:12:05.146Z,1.86
2018-12-29T13:14:47.558Z,1.78
2018-12-29T13:17:37.314Z,1.92
2018-12-29T13:20:19.777Z,1.98
2018-12-29T13:23:09.556Z,1.88
2018-12-29T13:25:51.424Z,2.04
2018-12-29T13:28:41.487Z,2.16
2018-12-29T13:31:23.558Z,2.21
2018-12-29T13:34:13.316Z,2.27
2018-12-29T13:36:55.810Z,2.28
2018-12-29T13:39:45.540Z,2.33
2018-12-29T13:42:27.872Z,2.21
2018-12-29T13:45:17.646Z,2.14
2018-12-29T13:47:48.354Z,2.09
2018-12-29T13:50:39.412Z,2.24
2018-12-29T13:53:22.038Z,2.15
2018-12-29T13:59:17.781Z,2.08
2018-12-29T14:04:43.605Z,1.89
2018-12-29T14:07:33.352Z,1.90
2018-12-29T14:10:16.060Z,2.07
2018-12-29T14:13:05.824Z,1.62
2018-12-29T14:15:49.540Z,1.90
2018-12-29T14:18:39.357Z,2.13
2018-12-29T14:21:25.144Z,2.13
2018-12-29T14:24:15.194Z,2.10
2018-12-29T14:26:57.108Z,2.18
2018-12-29T14:29:46.916Z,2.14
2018-12-29T14:32:29.186Z,2.15
2018-12-29T14:35:18.956Z,1.94
2018-12-29T14:38:01.205Z,1.83
2018-12-29T14:40:50.963Z,1.24
2018-12-29T14:43:37.479Z,1.35
2018-12-29T14:46:27.248Z,1.25
2018-12-29T14:49:09.752Z,1.24
2018-12-29T14:51:59.504Z,0.98
2018-12-29T14:54:41.735Z,1.16
2018-12-29T14:57:32.360Z,1.26
2018-12-29T15:00:14.541Z,1.56
2018-12-29T15:03:04.597Z,1.74
2018-12-29T15:05:47.035Z,1.96
2018-12-29T15:08:37.053Z,2.08
2018-12-29T15:11:19.756Z,2.14
2018-12-29T15:14:09.851Z,2.31
2018-12-29T15:16:53.005Z,2.31
2018-12-29T15:19:42.801Z,2.37
2018-12-29T15:22:25.552Z,2.00
2018-12-29T15:25:15.335Z,2.12
2018-12-29T15:28:00.010Z,2.05
2018-12-29T15:30:49.772Z,1.62
2018-12-29T15:33:32.005Z,1.80
2018-12-29T15:36:40.848Z,1.50
2018-12-29T15:39:22.922Z,1.48
2018-12-29T15:42:12.679Z,1.46
2018-12-29T15:44:55.060Z,1.41
2018-12-29T15:47:44.829Z,1.35
2018-12-29T15:50:27.319Z,1.48
2018-12-29T15:53:17.353Z,1.58
2018-12-29T15:56:00.030Z,1.66
2018-12-29T15:58:49.787Z,1.78
2018-12-29T16:01:33.523Z,1.74
2018-12-29T16:07:38.411Z,1.86
2018-12-29T16:10:21.032Z,1.84
2018-12-29T16:13:10.816Z,1.93
2018-12-29T16:16:00.940Z,2.00
2018-12-29T16:18:44.671Z,2.12
2018-12-29T16:21:34.407Z,2.10
2018-12-29T16:24:16.736Z,2.10
2018-12-29T16:27:06.519Z,2.01
2018-12-29T16:32:52.411Z,1.89
2018-12-29T16:35:42.550Z,1.91
2018-12-29T16:38:26.494Z,1.88
2018-12-29T16:41:16.520Z,1.68
2018-12-29T16:43:59.011Z,1.77
2018-12-29T16:46:48.767Z,1.67
2018-12-29T16:49:31.294Z,1.55
2018-12-29T16:52:21.047Z,1.50
2018-12-29T16:55:03.780Z,1.46
2018-12-29T16:57:53.556Z,1.41
2018-12-29T17:00:35.925Z,1.51
2018-12-29T17:03:25.721Z,1.47
2018-12-29T17:06:08.195Z,1.26
2018-12-29T17:08:57.986Z,1.34
2018-12-29T17:11:40.359Z,1.33
2018-12-29T17:14:30.998Z,1.33
2018-12-29T17:17:14.455Z,1.32
2018-12-29T17:20:04.527Z,1.31
2018-12-29T17:22:48.910Z,1.28
2018-12-29T17:25:38.706Z,1.23
2018-12-29T17:28:21.125Z,0.97
2018-12-29T17:31:10.888Z,1.14
2018-12-29T17:33:53.834Z,1.11
2018-12-29T17:36:43.927Z,1.09
2018-12-29T17:39:33.160Z,1.12
2018-12-29T17:42:22.941Z,1.02
2018-12-29T17:48:07.672Z,1.09
2018-12-29T17:50:57.634Z,1.07
2018-12-29T17:53:47.921Z,1.12
2018-12-29T17:56:33.508Z,1.19
2018-12-29T17:59:16.219Z,1.22
2018-12-29T18:02:00.038Z,1.26
2018-12-29T18:04:50.141Z,1.23
2018-12-29T18:07:39.901Z,1.23
2018-12-29T18:13:21.401Z,1.39
2018-12-29T18:16:11.592Z,1.40
2018-12-29T18:18:53.867Z,1.44
2018-12-29T18:21:43.930Z,1.40
2018-12-29T18:24:26.885Z,1.44
2018-12-29T18:27:18.212Z,1.39
2018-12-29T18:30:04.761Z,1.23
2018-12-29T18:36:00.499Z,1.28
2018-12-29T18:38:47.929Z,1.27
2018-12-29T18:41:31.661Z,1.28
2018-12-29T18:47:12.468Z,1.28
2018-12-29T18:50:02.179Z,1.24
2018-12-29T18:52:44.344Z,1.36
2018-12-29T19:08:15.770Z,1.56
2018-12-29T19:11:02.530Z,1.50
2018-12-29T19:22:35.150Z,1.34
2018-12-29T19:25:24.925Z,1.17
2018-12-29T19:28:07.677Z,1.29
2018-12-29T19:33:41.802Z,1.29
2018-12-29T19:36:31.544Z,1.27
2018-12-29T19:39:17.920Z,1.17
2018-12-29T19:42:26.861Z,1.33
2018-12-29T19:48:26.190Z,1.47
2018-12-29T19:51:08.474Z,1.44
2018-12-29T19:56:49.285Z,1.45
2018-12-29T20:02:33.506Z,1.54
2018-12-29T20:05:23.557Z,1.35
2018-12-29T20:08:08.056Z,1.41
2018-12-29T20:10:54.745Z,1.38
2018-12-29T20:16:31.710Z,1.46
2018-12-29T20:25:16.872Z,1.27
2018-12-29T20:27:59.381Z,1.34
2018-12-29T20:33:32.882Z,1.24
2018-12-29T20:36:23.026Z,1.31
2018-12-29T20:39:06.155Z,1.29
2018-12-29T20:41:55.940Z,1.11
2018-12-29T20:44:45.698Z,1.24
2018-12-29T20:47:28.599Z,1.18
2018-12-29T20:50:18.421Z,1.06
2018-12-29T20:53:08.215Z,1.18
2018-12-29T20:56:17.113Z,1.00
2018-12-29T20:59:06.958Z,1.16
2018-12-29T21:01:56.778Z,1.10
2018-12-29T21:04:46.596Z,1.23
2018-12-29T21:07:36.298Z,1.17
2018-12-29T21:10:26.037Z,1.13
2018-12-29T21:13:15.785Z,1.08
2018-12-29T21:15:59.056Z,1.05
2018-12-29T21:18:49.213Z,1.04
2018-12-29T21:21:36.094Z,1.04
2018-12-29T21:24:25.861Z,1.00
2018-12-29T21:27:08.153Z,1.13
2018-12-29T21:29:57.896Z,1.12
2018-12-29T21:32:42.576Z,1.15
2018-12-29T21:35:32.618Z,1.08
2018-12-29T21:38:17.126Z,1.02
2018-12-29T21:41:06.876Z,1.06
2018-12-29T21:43:49.140Z,1.07
2018-12-29T21:46:39.216Z,1.06
2018-12-29T21:49:28.913Z,1.05
2018-12-29T21:52:18.691Z,1.11
2018-12-29T21:55:05.025Z,1.11
2018-12-29T21:57:54.763Z,1.17
2018-12-29T22:00:39.483Z,1.14
2018-12-29T22:03:29.711Z,1.20
2018-12-29T22:06:12.349Z,1.18
2018-12-29T22:09:02.131Z,1.11
2018-12-29T22:11:44.200Z,1.09
2018-12-29T22:14:34.039Z,1.11
2018-12-29T22:17:23.976Z,1.02
2018-12-29T22:20:06.288Z,1.12
2018-12-29T22:22:56.116Z,1.20
2018-12-29T22:25:48.268Z,1.24
2018-12-29T22:28:56.887Z,1.16
2018-12-29T22:34:39.744Z,1.19
2018-12-29T22:37:29.546Z,1.32
2018-12-29T22:40:14.250Z,1.30
2018-12-29T22:43:04.019Z,1.32
2018-12-29T22:45:50.133Z,1.33
2018-12-29T22:48:39.878Z,1.34
2018-12-29T22:51:21.854Z,1.34
2018-12-29T22:54:11.619Z,1.35
2018-12-29T22:56:54.945Z,1.41
2018-12-29T22:59:37.906Z,1.28
2018-12-29T23:02:27.895Z,1.33
2018-12-29T23:05:17.706Z,1.27
2018-12-29T23:08:07.616Z,1.28
2018-12-29T23:10:57.512Z,1.16
2018-12-29T23:13:47.505Z,1.22
2018-12-29T23:16:37.378Z,1.28
2018-12-29T23:19:27.226Z,1.29
2018-12-29T23:22:17.122Z,1.33
2018-12-29T23:25:07.046Z,1.31
2018-12-29T23:27:51.481Z,1.23
2018-12-29T23:30:41.337Z,1.29
2018-12-29T23:33:31.306Z,1.34
2018-12-29T23:36:21.147Z,1.28
2018-12-29T23:39:11.038Z,1.33
2018-12-29T23:41:55.311Z,1.37
2018-12-29T23:44:45.154Z,1.38
2018-12-29T23:47:34.985Z,1.41
2018-12-29T23:50:24.973Z,1.37
2018-12-29T23:53:08.869Z,1.44
2018-12-29T23:55:58.727Z,1.44
2018-12-29T23:58:48.525Z,1.27
